SBOSBO BRI / LIBD
Speedbird OnlineSpeedbird Online BRI / LIBD

Bari Karol Wojtyła Airport
06:08 6°C

Location Bari, Italy
Latitude: 41.138901
Longitude: 16.760599
Web Airport Website | Wikipedia
Altitude 54 Meter / 177 Feet
Distance 1,714 KM / 1,065 Miles
from London.
Time Zone UTC +1 hours (Europe/Rome)
Codes IATA: BRI
ICAO: LIBD
Currency £1 equals EUR 1.14
Runways
RunwayLength (m)Surface
073000Asphalt
12156Asphalt
253000Asphalt
30156Asphalt
Radio
TypeDescriptionFrequency
APPAPP119.5
TWRTWR118.3
Live ATC
METAR LIBD 290450Z 27008KT 9999 DZ SCT020 06/04 Q1018
TAF TAF LIBD 282300Z 2900/2924 28008KT 9999 SCT020 BECMG 2907/2909 34013KT
Weather As Of 29 Jan 2023 06:08
Description Drizzle
Wind 15 km/h from West (270°)
Cloud Cover 40%
Precipitation Rain: none, Snow: none
Sunrise 07:07
Sunset 17:04
Lounges Vip Lounge, Main terminal



Support Speedbird Online

© 2017-2023 Speedbird Online